createdAt,value
2023-04-09T00:00:03.499Z,100.00
2023-04-09T00:02:31.609Z,100.00
2023-04-09T00:04:59.850Z,100.00
2023-04-09T00:07:29.403Z,100.00
2023-04-09T00:09:57.779Z,100.00
2023-04-09T00:12:26.085Z,100.00
2023-04-09T00:14:54.390Z,100.00
2023-04-09T00:17:22.643Z,100.00
2023-04-09T00:19:50.892Z,100.00
2023-04-09T00:22:22.065Z,100.00
2023-04-09T00:24:51.585Z,100.00
2023-04-09T00:27:19.768Z,100.00
2023-04-09T00:29:50.029Z,100.00
2023-04-09T00:32:21.518Z,100.00
2023-04-09T00:34:50.209Z,100.00
2023-04-09T00:37:18.283Z,100.00
2023-04-09T00:39:47.077Z,100.00
2023-04-09T00:42:16.718Z,100.00
2023-04-09T00:44:44.883Z,100.00
2023-04-09T00:47:13.165Z,100.00
2023-04-09T00:49:41.388Z,100.00
2023-04-09T00:52:09.584Z,100.00
2023-04-09T00:54:38.003Z,100.00
2023-04-09T00:57:06.329Z,100.00
2023-04-09T00:59:35.922Z,100.00
2023-04-09T01:02:04.106Z,100.00
2023-04-09T01:04:32.455Z,100.00
2023-04-09T01:07:06.974Z,100.00
2023-04-09T01:09:38.455Z,100.00
2023-04-09T01:12:13.624Z,100.00
2023-04-09T01:14:50.968Z,100.00
2023-04-09T01:17:26.334Z,100.00
2023-04-09T01:20:00.912Z,100.00
2023-04-09T01:22:42.478Z,100.00
2023-04-09T01:25:21.165Z,100.00
2023-04-09T01:27:59.419Z,100.00
2023-04-09T01:30:30.607Z,100.00
2023-04-09T01:33:02.131Z,100.00
2023-04-09T01:35:31.068Z,100.00
2023-04-09T01:38:00.517Z,100.00
2023-04-09T01:40:28.932Z,100.00
2023-04-09T01:42:59.697Z,100.00
2023-04-09T01:45:31.927Z,100.00
2023-04-09T01:48:01.784Z,100.00
2023-04-09T01:50:30.943Z,100.00
2023-04-09T01:52:59.240Z,100.00
2023-04-09T01:55:27.518Z,100.00
2023-04-09T01:57:56.064Z,100.00
2023-04-09T02:00:25.780Z,100.00
2023-04-09T02:03:02.883Z,100.00
2023-04-09T02:05:38.549Z,100.00
2023-04-09T02:08:09.707Z,100.00
2023-04-09T02:10:40.202Z,100.00
2023-04-09T02:13:12.718Z,100.00
2023-04-09T02:15:42.803Z,100.00
2023-04-09T02:18:24.492Z,100.00
2023-04-09T02:20:54.870Z,100.00
2023-04-09T02:23:23.250Z,100.00
2023-04-09T02:25:51.475Z,100.00
2023-04-09T02:28:19.673Z,100.00
2023-04-09T02:30:47.813Z,100.00
2023-04-09T02:33:16.230Z,100.00
2023-04-09T02:35:46.052Z,100.00
2023-04-09T02:38:16.153Z,100.00
2023-04-09T02:40:44.344Z,100.00
2023-04-09T02:43:12.906Z,100.00
2023-04-09T02:45:41.035Z,100.00
2023-04-09T02:48:09.169Z,100.00
2023-04-09T02:50:37.286Z,100.00
2023-04-09T02:53:25.655Z,100.00
2023-04-09T02:55:54.109Z,100.00
2023-04-09T02:58:22.189Z,100.00
2023-04-09T03:00:50.248Z,100.00
2023-04-09T03:03:18.429Z,100.00
2023-04-09T03:05:46.610Z,100.00
2023-04-09T03:08:16.302Z,100.00
2023-04-09T03:10:44.489Z,100.00
2023-04-09T03:13:13.166Z,100.00
2023-04-09T03:15:41.696Z,100.00
2023-04-09T03:18:09.912Z,100.00
2023-04-09T03:20:39.591Z,100.00
2023-04-09T03:23:07.715Z,100.00
2023-04-09T03:25:37.186Z,100.00
2023-04-09T03:28:05.257Z,100.00
2023-04-09T03:30:33.409Z,100.00
2023-04-09T03:33:01.590Z,100.00
2023-04-09T03:35:29.807Z,100.00
2023-04-09T03:37:57.964Z,100.00
2023-04-09T03:40:26.158Z,100.00
2023-04-09T03:42:55.805Z,100.00
2023-04-09T03:45:23.983Z,100.00
2023-04-09T03:47:52.086Z,100.00
2023-04-09T03:50:20.917Z,100.00
2023-04-09T03:52:49.179Z,100.00
2023-04-09T03:55:17.353Z,100.00
2023-04-09T03:58:03.092Z,100.00
2023-04-09T04:00:32.553Z,100.00
2023-04-09T04:03:01.094Z,100.00
2023-04-09T04:05:29.511Z,100.00
2023-04-09T04:07:57.545Z,100.00
2023-04-09T04:10:25.658Z,100.00
2023-04-09T04:12:55.393Z,100.00
2023-04-09T04:15:23.530Z,100.00
2023-04-09T04:17:53.282Z,100.00
2023-04-09T04:20:21.623Z,100.00
2023-04-09T04:22:49.813Z,100.00
2023-04-09T04:25:18.110Z,100.00
2023-04-09T04:27:46.189Z,100.00
2023-04-09T04:30:14.693Z,100.00
2023-04-09T04:32:42.902Z,100.00
2023-04-09T04:35:12.475Z,100.00
2023-04-09T04:37:40.675Z,100.00
2023-04-09T04:40:10.067Z,100.00
2023-04-09T04:42:38.139Z,100.00
2023-04-09T04:45:09.639Z,100.00
2023-04-09T04:47:38.138Z,100.00
2023-04-09T04:50:07.899Z,100.00
2023-04-09T04:52:38.941Z,100.00
2023-04-09T04:55:07.840Z,100.00
2023-04-09T04:57:35.935Z,100.00
2023-04-09T05:00:04.460Z,100.00
2023-04-09T05:02:32.769Z,100.00
2023-04-09T05:05:00.893Z,100.00
2023-04-09T05:07:29.050Z,100.00
2023-04-09T05:09:58.585Z,100.00
2023-04-09T05:12:26.728Z,100.00
2023-04-09T05:14:55.291Z,100.00
2023-04-09T05:17:24.778Z,100.00
2023-04-09T05:19:53.618Z,100.00
2023-04-09T05:22:21.928Z,100.00
2023-04-09T05:24:49.945Z,100.00
2023-04-09T05:27:20.973Z,100.00
2023-04-09T05:29:49.334Z,100.00
2023-04-09T05:32:17.550Z,100.00
2023-04-09T05:34:45.944Z,100.00
2023-04-09T05:37:14.286Z,100.00
2023-04-09T05:39:42.518Z,100.00
2023-04-09T05:42:11.061Z,100.00
2023-04-09T05:44:40.956Z,100.00
2023-04-09T05:47:09.013Z,100.00
2023-04-09T05:49:37.195Z,100.00
2023-04-09T05:52:05.379Z,100.00
2023-04-09T05:54:33.590Z,100.00
2023-04-09T05:57:01.869Z,100.00
2023-04-09T05:59:29.974Z,100.00
2023-04-09T06:01:59.611Z,100.00
2023-04-09T06:04:27.828Z,100.00
2023-04-09T06:06:56.292Z,100.00
2023-04-09T06:09:24.410Z,100.00
2023-04-09T06:11:52.688Z,100.00
2023-04-09T06:14:20.900Z,100.00
2023-04-09T06:16:49.074Z,100.00
2023-04-09T06:19:19.066Z,100.00
2023-04-09T06:21:47.449Z,100.00
2023-04-09T06:24:15.700Z,100.00
2023-04-09T06:26:43.701Z,100.00
2023-04-09T06:29:11.896Z,100.00
2023-04-09T06:31:40.191Z,100.00
2023-04-09T06:34:08.521Z,100.00
2023-04-09T06:36:40.577Z,100.00
2023-04-09T06:39:09.021Z,100.00
2023-04-09T06:41:37.094Z,100.00
2023-04-09T06:44:05.349Z,100.00
2023-04-09T06:46:33.502Z,100.00
2023-04-09T06:49:01.863Z,100.00
2023-04-09T06:51:30.174Z,100.00
2023-04-09T06:54:01.816Z,100.00
2023-04-09T06:56:29.881Z,100.00
2023-04-09T06:58:57.958Z,100.00
2023-04-09T07:01:27.227Z,100.00
2023-04-09T07:03:56.036Z,100.00
2023-04-09T07:06:24.485Z,100.00
2023-04-09T07:08:53.406Z,100.00
2023-04-09T07:11:23.149Z,100.00
2023-04-09T07:13:54.640Z,100.00
2023-04-09T07:16:23.819Z,100.00
2023-04-09T07:18:52.169Z,100.00
2023-04-09T07:21:20.601Z,100.00
2023-04-09T07:23:48.746Z,100.00
2023-04-09T07:26:16.818Z,100.00
2023-04-09T07:28:46.567Z,100.00
2023-04-09T07:31:16.049Z,100.00
2023-04-09T07:33:44.749Z,100.00
2023-04-09T07:36:13.051Z,100.00
2023-04-09T07:38:41.650Z,100.00
2023-04-09T07:41:12.319Z,100.00
2023-04-09T07:43:40.777Z,100.00
2023-04-09T07:46:10.190Z,100.00
2023-04-09T07:48:38.324Z,100.00
2023-04-09T07:51:06.424Z,100.00
2023-04-09T07:53:34.946Z,100.00
2023-04-09T07:56:03.369Z,100.00
2023-04-09T07:58:31.839Z,100.00
2023-04-09T08:00:59.929Z,100.00
2023-04-09T08:03:29.783Z,100.00
2023-04-09T08:05:58.171Z,100.00
2023-04-09T08:08:26.346Z,100.00
2023-04-09T08:10:55.700Z,100.00
2023-04-09T08:13:24.688Z,100.00
2023-04-09T08:15:53.241Z,100.00
2023-04-09T08:18:21.525Z,100.00
2023-04-09T08:20:51.102Z,100.00
2023-04-09T08:23:19.332Z,100.00
2023-04-09T08:25:48.816Z,100.00
2023-04-09T08:28:16.905Z,100.00
2023-04-09T08:30:45.088Z,100.00
2023-04-09T08:33:13.541Z,100.00
2023-04-09T08:35:41.955Z,100.00
2023-04-09T08:38:11.468Z,100.00
2023-04-09T08:40:39.814Z,100.00
2023-04-09T08:43:09.563Z,100.00
2023-04-09T08:45:37.936Z,100.00
2023-04-09T08:48:10.110Z,100.00
2023-04-09T08:50:38.624Z,100.00
2023-04-09T08:53:08.149Z,100.00
2023-04-09T08:55:38.224Z,100.00
2023-04-09T08:58:07.613Z,100.00
2023-04-09T09:00:35.850Z,100.00
2023-04-09T09:03:06.623Z,99.97
2023-04-09T09:05:39.197Z,98.89
2023-04-09T09:08:09.019Z,100.00
2023-04-09T09:10:44.310Z,100.00
2023-04-09T09:13:23.914Z,100.00
2023-04-09T09:15:55.513Z,100.00
2023-04-09T09:18:39.703Z,95.42
2023-04-09T09:21:19.624Z,96.06
2023-04-09T09:23:48.573Z,96.86
2023-04-09T09:26:20.853Z,98.00
2023-04-09T09:28:50.152Z,99.93
2023-04-09T09:31:21.146Z,100.00
2023-04-09T09:33:50.713Z,97.55
2023-04-09T09:36:33.525Z,96.44
2023-04-09T09:39:08.426Z,100.00
2023-04-09T09:41:38.248Z,96.79
2023-04-09T09:44:08.302Z,97.29
2023-04-09T09:46:39.508Z,98.62
2023-04-09T09:49:08.699Z,92.62
2023-04-09T09:51:40.722Z,94.10
2023-04-09T09:54:10.844Z,88.14
2023-04-09T09:56:43.567Z,86.46
2023-04-09T09:59:18.083Z,76.61
2023-04-09T10:01:47.485Z,75.75
2023-04-09T10:04:16.725Z,72.65
2023-04-09T10:06:46.985Z,74.80
2023-04-09T10:09:15.259Z,73.97
2023-04-09T10:11:48.390Z,73.43
2023-04-09T10:14:19.044Z,71.96
2023-04-09T10:16:48.359Z,70.88
2023-04-09T10:19:17.209Z,69.90
2023-04-09T10:21:53.621Z,71.31
2023-04-09T10:24:22.147Z,69.10
2023-04-09T10:26:55.983Z,66.56
2023-04-09T10:29:30.056Z,66.10
2023-04-09T10:32:06.453Z,64.81
2023-04-09T10:34:37.808Z,68.77
2023-04-09T10:37:08.971Z,69.33
2023-04-09T10:39:42.596Z,70.62
2023-04-09T10:42:15.899Z,70.96
2023-04-09T10:44:44.523Z,71.14
2023-04-09T10:47:13.405Z,69.20
2023-04-09T10:49:43.153Z,68.52
2023-04-09T10:52:13.905Z,67.67
2023-04-09T10:54:46.054Z,66.50
2023-04-09T10:57:21.622Z,63.61
2023-04-09T10:59:51.612Z,60.77
2023-04-09T11:02:56.277Z,61.16
2023-04-09T11:05:31.978Z,58.03
2023-04-09T11:08:06.267Z,51.64
2023-04-09T11:10:35.526Z,51.01
2023-04-09T11:13:05.312Z,51.96
2023-04-09T11:15:35.831Z,52.31
2023-04-09T11:18:05.185Z,51.98
2023-04-09T11:20:35.885Z,53.64
2023-04-09T11:23:04.504Z,53.87
2023-04-09T11:25:36.362Z,54.21
2023-04-09T11:28:08.276Z,54.08
2023-04-09T11:30:37.811Z,50.99
2023-04-09T11:33:06.058Z,51.72
2023-04-09T11:35:36.638Z,52.89
2023-04-09T11:38:08.386Z,53.14
2023-04-09T11:40:37.410Z,52.80
2023-04-09T11:43:09.748Z,50.91
2023-04-09T11:45:38.283Z,47.59
2023-04-09T11:48:06.766Z,48.64
2023-04-09T11:50:35.948Z,50.49
2023-04-09T11:53:17.244Z,50.84
2023-04-09T11:55:49.672Z,51.47
2023-04-09T11:58:19.310Z,50.96
2023-04-09T12:00:47.762Z,51.12
2023-04-09T12:03:17.070Z,50.24
2023-04-09T12:05:50.972Z,49.36
2023-04-09T12:08:25.018Z,47.66
2023-04-09T12:10:54.197Z,47.10
2023-04-09T12:13:33.248Z,46.71
2023-04-09T12:16:02.770Z,46.30
2023-04-09T12:18:30.994Z,48.22
2023-04-09T12:20:59.380Z,49.26
2023-04-09T12:23:27.518Z,45.98
2023-04-09T12:25:56.463Z,46.72
2023-04-09T12:28:26.069Z,45.44
2023-04-09T12:30:54.243Z,46.13
2023-04-09T12:33:22.516Z,47.07
2023-04-09T12:35:50.577Z,46.12
2023-04-09T12:38:18.782Z,45.78
2023-04-09T12:40:46.838Z,46.83
2023-04-09T12:43:15.281Z,47.32
2023-04-09T12:45:45.133Z,47.41
2023-04-09T12:48:13.300Z,48.14
2023-04-09T12:50:41.544Z,49.07
2023-04-09T12:53:10.591Z,50.63
2023-04-09T12:55:39.894Z,51.41
2023-04-09T12:58:09.240Z,52.40
2023-04-09T13:00:37.352Z,51.13
2023-04-09T13:03:07.324Z,50.51
2023-04-09T13:05:36.487Z,49.66
2023-04-09T13:08:04.994Z,49.38
2023-04-09T13:10:33.405Z,48.84
2023-04-09T13:13:01.639Z,47.50
2023-04-09T13:15:30.070Z,47.86
2023-04-09T13:17:58.257Z,48.12
2023-04-09T13:20:30.746Z,48.83
2023-04-09T13:22:58.962Z,48.25
2023-04-09T13:25:27.028Z,47.51
2023-04-09T13:27:55.525Z,48.92
2023-04-09T13:30:24.268Z,47.40
2023-04-09T13:32:52.676Z,48.86
2023-04-09T13:35:20.944Z,47.87
2023-04-09T13:37:50.665Z,48.18
2023-04-09T13:40:18.804Z,47.67
2023-04-09T13:42:47.019Z,47.00
2023-04-09T13:45:15.131Z,46.41
2023-04-09T13:47:43.435Z,44.65
2023-04-09T13:50:13.230Z,44.66
2023-04-09T13:52:41.453Z,45.05
2023-04-09T13:55:11.836Z,45.00
2023-04-09T13:57:40.072Z,45.95
2023-04-09T14:00:09.760Z,46.05
2023-04-09T14:02:37.981Z,45.90
2023-04-09T14:05:08.162Z,46.93
2023-04-09T14:07:36.641Z,47.95
2023-04-09T14:10:05.192Z,47.58
2023-04-09T14:12:34.715Z,48.30
2023-04-09T14:15:02.809Z,48.88
2023-04-09T14:17:30.925Z,48.98
2023-04-09T14:19:59.180Z,48.10
2023-04-09T14:22:30.017Z,48.89
2023-04-09T14:24:59.574Z,49.29
2023-04-09T14:27:27.649Z,49.27
2023-04-09T14:29:57.251Z,48.66
2023-04-09T14:32:25.544Z,48.58
2023-04-09T14:34:56.237Z,48.43
2023-04-09T14:37:24.329Z,47.81
2023-04-09T14:39:52.526Z,47.50
2023-04-09T14:42:21.055Z,48.77
2023-04-09T14:44:49.250Z,50.23
2023-04-09T14:47:19.000Z,50.75
2023-04-09T14:49:47.156Z,50.47
2023-04-09T14:52:15.392Z,49.44
2023-04-09T14:54:43.716Z,49.51
2023-04-09T14:57:11.892Z,49.26
2023-04-09T14:59:39.977Z,49.40
2023-04-09T15:02:08.068Z,48.70
2023-04-09T15:04:37.894Z,48.44
2023-04-09T15:07:06.921Z,49.45
2023-04-09T15:09:35.331Z,49.92
2023-04-09T15:12:03.663Z,48.67
2023-04-09T15:14:33.725Z,49.22
2023-04-09T15:17:01.873Z,48.14
2023-04-09T15:19:30.934Z,48.21
2023-04-09T15:22:01.776Z,47.30
2023-04-09T15:24:30.490Z,46.78
2023-04-09T15:26:58.752Z,46.82
2023-04-09T15:29:26.843Z,46.38
2023-04-09T15:31:55.370Z,46.45
2023-04-09T15:34:23.625Z,46.97
2023-04-09T15:36:51.731Z,46.71
2023-04-09T15:39:21.452Z,46.86
2023-04-09T15:41:49.750Z,45.99
2023-04-09T15:44:18.736Z,44.42
2023-04-09T15:46:46.870Z,45.39
2023-04-09T15:49:15.115Z,45.03
2023-04-09T15:51:43.544Z,45.15
2023-04-09T15:54:12.070Z,44.15
2023-04-09T15:56:41.660Z,44.43
2023-04-09T15:59:10.068Z,44.93
2023-04-09T16:01:38.593Z,46.61
2023-04-09T16:04:08.180Z,46.78
2023-04-09T16:06:36.595Z,47.05
2023-04-09T16:09:04.913Z,46.44
2023-04-09T16:11:35.941Z,46.52
2023-04-09T16:14:05.503Z,46.67
2023-04-09T16:16:33.641Z,47.28
2023-04-09T16:19:04.462Z,47.61
2023-04-09T16:21:32.646Z,47.90
2023-04-09T16:24:02.052Z,47.63
2023-04-09T16:26:30.158Z,47.38
2023-04-09T16:29:03.220Z,48.07
2023-04-09T16:31:32.832Z,48.26
2023-04-09T16:34:01.107Z,48.53
2023-04-09T16:36:29.492Z,49.38
2023-04-09T16:38:57.682Z,49.68
2023-04-09T16:41:28.106Z,49.51
2023-04-09T16:43:56.184Z,49.62
2023-04-09T16:46:25.012Z,50.50
2023-04-09T16:48:54.959Z,50.55
2023-04-09T16:51:23.288Z,51.45
2023-04-09T16:53:51.426Z,51.99
2023-04-09T16:56:19.784Z,52.22
2023-04-09T16:58:47.852Z,52.83
2023-04-09T17:01:16.129Z,52.76
2023-04-09T17:03:44.229Z,53.30
2023-04-09T17:06:13.830Z,53.71
2023-04-09T17:08:42.199Z,54.27
2023-04-09T17:11:10.338Z,54.86
2023-04-09T17:13:38.553Z,54.55
2023-04-09T17:16:07.634Z,54.82
2023-04-09T17:18:35.942Z,55.16
2023-04-09T17:21:04.261Z,55.32
2023-04-09T17:23:35.433Z,55.05
2023-04-09T17:26:03.525Z,54.86
2023-04-09T17:28:32.094Z,54.25
2023-04-09T17:31:00.393Z,54.00
2023-04-09T17:33:28.674Z,54.29
2023-04-09T17:35:57.744Z,54.32
2023-04-09T17:38:27.302Z,54.46
2023-04-09T17:40:56.779Z,54.03
2023-04-09T17:43:25.130Z,54.40
2023-04-09T17:45:53.344Z,54.10
2023-04-09T17:48:21.502Z,54.82
2023-04-09T17:50:50.230Z,54.48
2023-04-09T17:53:18.603Z,54.41
2023-04-09T17:55:48.884Z,55.00
2023-04-09T17:58:18.768Z,55.09
2023-04-09T18:00:47.031Z,55.07
2023-04-09T18:03:15.956Z,55.86
2023-04-09T18:05:44.534Z,55.74
2023-04-09T18:08:12.753Z,56.10
2023-04-09T18:10:40.964Z,55.84
2023-04-09T18:13:09.895Z,56.46
2023-04-09T18:15:39.785Z,56.64
2023-04-09T18:18:07.881Z,56.99
2023-04-09T18:20:35.968Z,57.49
2023-04-09T18:23:04.078Z,57.68
2023-04-09T18:25:32.348Z,57.71
2023-04-09T18:28:00.474Z,57.43
2023-04-09T18:30:28.850Z,58.10
2023-04-09T18:32:58.579Z,58.27
2023-04-09T18:35:27.054Z,59.49
2023-04-09T18:37:55.567Z,60.57
2023-04-09T18:40:23.810Z,61.44
2023-04-09T18:42:53.076Z,61.58
2023-04-09T18:45:21.425Z,62.43
2023-04-09T18:47:51.211Z,63.31
2023-04-09T18:50:21.212Z,63.60
2023-04-09T18:52:49.329Z,63.78
2023-04-09T18:55:18.359Z,63.78
2023-04-09T18:57:47.457Z,64.32
2023-04-09T19:00:16.308Z,64.69
2023-04-09T19:02:44.987Z,65.03
2023-04-09T19:05:14.298Z,65.24
2023-04-09T19:07:43.885Z,65.30
2023-04-09T19:10:12.228Z,65.75
2023-04-09T19:12:46.775Z,65.59
2023-04-09T19:15:15.024Z,64.96
2023-04-09T19:17:43.231Z,65.78
2023-04-09T19:20:12.640Z,65.59
2023-04-09T19:22:40.842Z,65.72
2023-04-09T19:25:11.540Z,65.44
2023-04-09T19:27:43.037Z,65.98
2023-04-09T19:30:12.023Z,65.75
2023-04-09T19:32:41.375Z,66.70
2023-04-09T19:35:10.586Z,66.03
2023-04-09T19:37:39.820Z,65.19
2023-04-09T19:40:11.014Z,65.89
2023-04-09T19:42:40.285Z,65.73
2023-04-09T19:45:09.794Z,65.79
2023-04-09T19:47:38.071Z,65.85
2023-04-09T19:50:07.112Z,66.15
2023-04-09T19:52:35.445Z,66.48
2023-04-09T19:55:05.132Z,67.24
2023-04-09T19:57:35.017Z,67.18
2023-04-09T20:00:05.125Z,66.78
2023-04-09T20:02:33.617Z,67.30
2023-04-09T20:05:02.027Z,66.83
2023-04-09T20:07:30.181Z,66.40
2023-04-09T20:09:58.221Z,66.56
2023-04-09T20:12:29.686Z,66.74
2023-04-09T20:15:00.059Z,66.72
2023-04-09T20:17:28.244Z,65.91
2023-04-09T20:19:56.911Z,65.78
2023-04-09T20:22:25.230Z,64.52
2023-04-09T20:24:55.538Z,63.67
2023-04-09T20:27:23.855Z,64.25
2023-04-09T20:29:53.080Z,64.35
2023-04-09T20:32:22.886Z,63.43
2023-04-09T20:34:51.307Z,64.05
2023-04-09T20:37:19.485Z,64.50
2023-04-09T20:39:47.450Z,64.52
2023-04-09T20:42:15.627Z,65.12
2023-04-09T20:44:44.958Z,64.28
2023-04-09T20:47:13.228Z,64.68
2023-04-09T20:49:45.974Z,64.79
2023-04-09T20:52:14.691Z,65.04
2023-04-09T20:54:43.468Z,65.23
2023-04-09T20:57:13.754Z,65.77
2023-04-09T20:59:42.370Z,66.08
2023-04-09T21:02:10.672Z,66.19
2023-04-09T21:04:38.823Z,65.47
2023-04-09T21:07:08.372Z,66.28
2023-04-09T21:09:36.604Z,66.88
2023-04-09T21:12:04.666Z,66.54
2023-04-09T21:14:33.036Z,66.55
2023-04-09T21:17:01.281Z,66.77
2023-04-09T21:19:29.403Z,66.38
2023-04-09T21:21:57.806Z,67.31
2023-04-09T21:24:28.069Z,67.78
2023-04-09T21:26:57.205Z,67.50
2023-04-09T21:29:26.286Z,67.88
2023-04-09T21:31:54.672Z,67.20
2023-04-09T21:34:23.046Z,67.87
2023-04-09T21:36:51.487Z,68.65
2023-04-09T21:39:19.620Z,68.74
2023-04-09T21:41:49.213Z,68.21
2023-04-09T21:44:17.379Z,68.38
2023-04-09T21:46:46.375Z,69.26
2023-04-09T21:49:14.908Z,69.91
2023-04-09T21:51:43.188Z,69.82
2023-04-09T21:54:11.714Z,70.21
2023-04-09T21:56:58.534Z,70.36
2023-04-09T21:59:28.329Z,69.62
2023-04-09T22:01:56.787Z,69.08
2023-04-09T22:04:25.044Z,69.54
2023-04-09T22:06:54.866Z,70.29
2023-04-09T22:09:23.042Z,69.95
2023-04-09T22:11:51.197Z,70.97
2023-04-09T22:14:19.936Z,71.55
2023-04-09T22:16:49.496Z,71.94
2023-04-09T22:19:17.640Z,72.51
2023-04-09T22:21:49.699Z,73.34
2023-04-09T22:24:18.283Z,72.87
2023-04-09T22:26:46.966Z,73.50
2023-04-09T22:29:15.242Z,72.80
2023-04-09T22:31:43.534Z,72.62
2023-04-09T22:34:20.597Z,72.25
2023-04-09T22:36:49.145Z,71.61
2023-04-09T22:39:17.357Z,70.93
2023-04-09T22:41:45.546Z,71.09
2023-04-09T22:44:13.756Z,71.22
2023-04-09T22:46:42.403Z,71.53
2023-04-09T22:49:11.605Z,72.46
2023-04-09T22:51:41.935Z,72.98
2023-04-09T22:54:10.560Z,73.70
2023-04-09T22:56:38.849Z,74.09
2023-04-09T22:59:07.235Z,74.22
2023-04-09T23:01:35.688Z,74.55
2023-04-09T23:04:04.122Z,74.52
2023-04-09T23:06:32.295Z,73.84
2023-04-09T23:09:02.252Z,73.78
2023-04-09T23:11:30.738Z,73.95
2023-04-09T23:13:59.081Z,74.04
2023-04-09T23:16:27.187Z,73.69
2023-04-09T23:18:55.727Z,72.61
2023-04-09T23:21:24.023Z,73.31
2023-04-09T23:23:52.931Z,72.39
2023-04-09T23:26:22.657Z,71.99
2023-04-09T23:28:50.961Z,72.26
2023-04-09T23:31:19.134Z,71.90
2023-04-09T23:33:47.381Z,71.94
2023-04-09T23:36:15.528Z,71.70
2023-04-09T23:38:46.950Z,71.84
2023-04-09T23:41:15.786Z,71.15
2023-04-09T23:43:46.078Z,71.66
2023-04-09T23:46:14.297Z,71.26
2023-04-09T23:48:42.348Z,70.99
2023-04-09T23:51:10.527Z,71.41
2023-04-09T23:53:39.257Z,71.91
2023-04-09T23:56:07.903Z,70.81
2023-04-09T23:58:36.025Z,71.09
